createdAt,value
2023-05-20T00:00:43.871Z,14.09
2023-05-20T00:01:43.894Z,14.09
2023-05-20T00:02:43.932Z,14.09
2023-05-20T00:03:43.996Z,14.08
2023-05-20T00:04:43.862Z,14.07
2023-05-20T00:05:44.096Z,14.06
2023-05-20T00:06:43.833Z,14.05
2023-05-20T00:07:43.811Z,14.05
2023-05-20T00:08:43.797Z,14.04
2023-05-20T00:09:43.791Z,14.03
2023-05-20T00:10:43.767Z,14.02
2023-05-20T00:11:43.769Z,14.01
2023-05-20T00:12:43.766Z,13.99
2023-05-20T00:13:43.747Z,13.98
2023-05-20T00:14:43.743Z,13.96
2023-05-20T00:15:43.718Z,13.95
2023-05-20T00:16:43.750Z,13.93
2023-05-20T00:17:43.733Z,13.92
2023-05-20T00:18:43.720Z,13.92
2023-05-20T00:19:43.690Z,13.91
2023-05-20T00:20:43.663Z,13.91
2023-05-20T00:21:43.679Z,13.90
2023-05-20T00:22:43.631Z,13.90
2023-05-20T00:23:43.631Z,13.90
2023-05-20T00:24:43.633Z,13.90
2023-05-20T00:25:43.601Z,13.90
2023-05-20T00:26:43.605Z,13.90
2023-05-20T00:27:43.590Z,13.90
2023-05-20T00:28:43.573Z,13.90
2023-05-20T00:29:43.569Z,13.90
2023-05-20T00:30:43.557Z,13.90
2023-05-20T00:31:43.584Z,13.90
2023-05-20T00:32:43.571Z,13.90
2023-05-20T00:33:43.517Z,13.90
2023-05-20T00:34:43.508Z,13.90
2023-05-20T00:35:43.505Z,13.90
2023-05-20T00:36:43.488Z,13.90
2023-05-20T00:37:43.471Z,13.89
2023-05-20T00:38:43.459Z,13.89
2023-05-20T00:39:43.450Z,13.89
2023-05-20T00:40:43.504Z,13.89
2023-05-20T00:41:43.429Z,13.86
2023-05-20T00:42:43.412Z,13.83
2023-05-20T00:43:43.414Z,13.80
2023-05-20T00:44:43.427Z,13.77
2023-05-20T00:45:43.393Z,13.74
2023-05-20T00:46:43.384Z,13.70
2023-05-20T00:47:43.385Z,13.68
2023-05-20T00:48:43.346Z,13.64
2023-05-20T00:49:43.338Z,13.61
2023-05-20T00:50:43.326Z,13.60
2023-05-20T00:51:43.333Z,13.59
2023-05-20T00:52:43.348Z,13.58
2023-05-20T00:53:43.291Z,13.59
2023-05-20T00:54:43.278Z,13.59
2023-05-20T00:55:43.269Z,13.61
2023-05-20T00:56:43.282Z,13.62
2023-05-20T00:57:43.260Z,13.64
2023-05-20T00:58:43.237Z,13.65
2023-05-20T00:59:44.739Z,13.67
2023-05-20T01:00:43.203Z,13.68
2023-05-20T01:01:43.262Z,13.69
2023-05-20T01:02:43.308Z,13.70
2023-05-20T01:03:43.214Z,13.70
2023-05-20T01:04:43.165Z,13.71
2023-05-20T01:05:43.167Z,13.71
2023-05-20T01:06:43.146Z,13.70
2023-05-20T01:07:43.153Z,13.69
2023-05-20T01:08:43.126Z,13.69
2023-05-20T01:09:43.123Z,13.69
2023-05-20T01:10:43.095Z,13.68
2023-05-20T01:11:43.090Z,13.69
2023-05-20T01:12:43.081Z,13.69
2023-05-20T01:13:43.098Z,13.69
2023-05-20T01:14:43.064Z,13.69
2023-05-20T01:15:43.111Z,13.69
2023-05-20T01:16:43.033Z,13.68
2023-05-20T01:17:43.118Z,13.68
2023-05-20T01:18:43.072Z,13.68
2023-05-20T01:19:43.005Z,13.68
2023-05-20T01:20:42.988Z,13.68
2023-05-20T01:21:42.976Z,13.69
2023-05-20T01:22:42.995Z,13.69
2023-05-20T01:23:42.952Z,13.69
2023-05-20T01:24:42.949Z,13.69
2023-05-20T01:25:42.932Z,13.69
2023-05-20T01:26:42.928Z,13.68
2023-05-20T01:27:42.917Z,13.68
2023-05-20T01:28:42.914Z,13.67
2023-05-20T01:29:42.919Z,13.66
2023-05-20T01:30:44.097Z,13.65
2023-05-20T01:31:42.921Z,13.64
2023-05-20T01:32:42.872Z,13.64
2023-05-20T01:33:42.852Z,13.63
2023-05-20T01:34:42.865Z,13.63
2023-05-20T01:35:42.827Z,13.63
2023-05-20T01:36:42.798Z,13.63
2023-05-20T01:37:42.798Z,13.64
2023-05-20T01:38:42.803Z,13.64
2023-05-20T01:39:42.790Z,13.64
2023-05-20T01:40:42.772Z,13.64
2023-05-20T01:41:42.761Z,13.64
2023-05-20T01:42:42.751Z,13.65
2023-05-20T01:43:42.750Z,13.65
2023-05-20T01:44:42.724Z,13.65
2023-05-20T01:45:42.718Z,13.66
2023-05-20T01:46:42.757Z,13.66
2023-05-20T01:47:42.705Z,13.65
2023-05-20T01:48:42.746Z,13.64
2023-05-20T01:49:42.669Z,13.63
2023-05-20T01:50:42.680Z,13.63
2023-05-20T01:51:42.646Z,13.62
2023-05-20T01:52:42.633Z,13.61
2023-05-20T01:53:42.626Z,13.60
2023-05-20T01:54:42.612Z,13.59
2023-05-20T01:55:42.626Z,13.58
2023-05-20T01:56:42.613Z,13.57
2023-05-20T01:57:42.599Z,13.57
2023-05-20T01:58:42.579Z,13.57
2023-05-20T01:59:42.598Z,13.56
2023-05-20T02:00:42.605Z,13.56
2023-05-20T02:01:42.540Z,13.56
2023-05-20T02:02:42.609Z,13.56
2023-05-20T02:03:42.517Z,13.55
2023-05-20T02:04:42.523Z,13.55
2023-05-20T02:05:42.560Z,13.55
2023-05-20T02:06:42.486Z,13.55
2023-05-20T02:07:42.485Z,13.56
2023-05-20T02:08:42.466Z,13.56
2023-05-20T02:09:42.456Z,13.56
2023-05-20T02:10:42.474Z,13.56
2023-05-20T02:11:42.442Z,13.56
2023-05-20T02:12:42.427Z,13.56
2023-05-20T02:13:42.414Z,13.57
2023-05-20T02:14:42.402Z,13.57
2023-05-20T02:15:42.410Z,13.57
2023-05-20T02:16:42.447Z,13.57
2023-05-20T02:17:42.417Z,13.58
2023-05-20T02:18:42.377Z,13.58
2023-05-20T02:19:42.366Z,13.58
2023-05-20T02:20:42.370Z,13.58
2023-05-20T02:21:42.362Z,13.58
2023-05-20T02:22:42.324Z,13.57
2023-05-20T02:23:42.305Z,13.57
2023-05-20T02:24:42.287Z,13.56
2023-05-20T02:25:42.319Z,13.55
2023-05-20T02:26:42.283Z,13.54
2023-05-20T02:27:42.279Z,13.53
2023-05-20T02:28:42.243Z,13.52
2023-05-20T02:29:42.255Z,13.51
2023-05-20T02:30:42.247Z,13.50
2023-05-20T02:31:42.219Z,13.49
2023-05-20T02:32:42.251Z,13.47
2023-05-20T02:33:42.208Z,13.45
2023-05-20T02:34:42.188Z,13.45
2023-05-20T02:35:42.215Z,13.44
2023-05-20T02:36:42.186Z,13.43
2023-05-20T02:37:42.147Z,13.41
2023-05-20T02:38:42.140Z,13.40
2023-05-20T02:39:42.129Z,13.39
2023-05-20T02:40:42.144Z,13.37
2023-05-20T02:41:42.118Z,13.36
2023-05-20T02:42:42.125Z,13.35
2023-05-20T02:43:42.092Z,13.35
2023-05-20T02:44:42.093Z,13.34
2023-05-20T02:45:42.538Z,13.34
2023-05-20T02:46:42.063Z,13.34
2023-05-20T02:47:42.096Z,13.34
2023-05-20T02:48:42.036Z,13.34
2023-05-20T02:49:42.040Z,13.34
2023-05-20T02:50:42.033Z,13.35
2023-05-20T02:51:42.005Z,13.35
2023-05-20T02:52:41.979Z,13.35
2023-05-20T02:53:41.977Z,13.36
2023-05-20T02:54:41.987Z,13.37
2023-05-20T02:55:41.959Z,13.37
2023-05-20T02:56:41.971Z,13.38
2023-05-20T02:57:41.941Z,13.39
2023-05-20T02:58:41.919Z,13.40
2023-05-20T02:59:41.918Z,13.41
2023-05-20T03:00:41.906Z,13.41
2023-05-20T03:01:41.943Z,13.41
2023-05-20T03:02:41.903Z,13.40
2023-05-20T03:03:41.897Z,13.39
2023-05-20T03:04:41.954Z,13.38
2023-05-20T03:05:41.851Z,13.36
2023-05-20T03:06:41.853Z,13.36
2023-05-20T03:07:41.835Z,13.35
2023-05-20T03:08:41.813Z,13.35
2023-05-20T03:09:41.808Z,13.35
2023-05-20T03:10:41.800Z,13.35
2023-05-20T03:11:41.801Z,13.35
2023-05-20T03:12:41.778Z,13.34
2023-05-20T03:13:41.765Z,13.33
2023-05-20T03:14:41.744Z,13.31
2023-05-20T03:15:41.791Z,13.30
2023-05-20T03:16:41.743Z,13.29
2023-05-20T03:17:41.755Z,13.28
2023-05-20T03:18:41.786Z,13.29
2023-05-20T03:19:41.707Z,13.29
2023-05-20T03:20:41.711Z,13.29
2023-05-20T03:21:41.687Z,13.28
2023-05-20T03:22:41.662Z,13.28
2023-05-20T03:23:41.650Z,13.28
2023-05-20T03:24:41.629Z,13.28
2023-05-20T03:25:41.621Z,13.28
2023-05-20T03:26:41.633Z,13.28
2023-05-20T03:27:41.620Z,13.28
2023-05-20T03:28:41.597Z,13.28
2023-05-20T03:29:41.581Z,13.28
2023-05-20T03:30:41.570Z,13.28
2023-05-20T03:31:41.682Z,13.27
2023-05-20T03:32:41.593Z,13.27
2023-05-20T03:33:41.538Z,13.26
2023-05-20T03:34:41.532Z,13.26
2023-05-20T03:35:41.523Z,13.26
2023-05-20T03:36:41.522Z,13.27
2023-05-20T03:37:41.499Z,13.28
2023-05-20T03:38:41.474Z,13.28
2023-05-20T03:39:41.470Z,13.29
2023-05-20T03:40:41.456Z,13.29
2023-05-20T03:41:41.470Z,13.29
2023-05-20T03:42:41.438Z,13.29
2023-05-20T03:43:41.450Z,13.30
2023-05-20T03:44:41.428Z,13.30
2023-05-20T03:45:41.404Z,13.31
2023-05-20T03:46:41.446Z,13.31
2023-05-20T03:47:41.397Z,13.30
2023-05-20T03:48:41.373Z,13.30
2023-05-20T03:49:41.355Z,13.30
2023-05-20T03:50:41.347Z,13.29
2023-05-20T03:51:41.333Z,13.28
2023-05-20T03:52:41.349Z,13.28
2023-05-20T03:53:41.323Z,13.27
2023-05-20T03:54:41.302Z,13.27
2023-05-20T03:55:41.298Z,13.27
2023-05-20T03:56:41.320Z,13.28
2023-05-20T03:57:41.275Z,13.28
2023-05-20T03:58:41.262Z,13.28
2023-05-20T03:59:41.254Z,13.29
2023-05-20T04:00:41.259Z,13.29
2023-05-20T04:01:41.290Z,13.30
2023-05-20T04:02:41.263Z,13.31
2023-05-20T04:03:41.266Z,13.31
2023-05-20T04:04:41.190Z,13.32
2023-05-20T04:05:41.178Z,13.32
2023-05-20T04:06:41.190Z,13.32
2023-05-20T04:07:41.176Z,13.32
2023-05-20T04:08:41.155Z,13.32
2023-05-20T04:09:41.132Z,13.31
2023-05-20T04:10:41.129Z,13.31
2023-05-20T04:11:41.132Z,13.31
2023-05-20T04:12:41.103Z,13.31
2023-05-20T04:13:41.096Z,13.30
2023-05-20T04:14:41.086Z,13.30
2023-05-20T04:15:41.077Z,13.31
2023-05-20T04:16:41.133Z,13.31
2023-05-20T04:17:41.110Z,13.32
2023-05-20T04:18:41.117Z,13.32
2023-05-20T04:19:41.026Z,13.32
2023-05-20T04:20:41.019Z,13.33
2023-05-20T04:21:41.022Z,13.32
2023-05-20T04:22:41.001Z,13.31
2023-05-20T04:23:40.983Z,13.28
2023-05-20T04:24:40.972Z,13.27
2023-05-20T04:25:41.041Z,13.25
2023-05-20T04:26:40.971Z,13.24
2023-05-20T04:27:40.941Z,13.23
2023-05-20T04:28:40.930Z,13.22
2023-05-20T04:29:40.921Z,13.22
2023-05-20T04:30:40.908Z,13.22
2023-05-20T04:31:40.967Z,13.22
2023-05-20T04:32:40.909Z,13.22
2023-05-20T04:33:40.900Z,13.21
2023-05-20T04:34:40.883Z,13.21
2023-05-20T04:35:40.856Z,13.22
2023-05-20T04:36:40.862Z,13.23
2023-05-20T04:37:40.829Z,13.24
2023-05-20T04:38:40.822Z,13.25
2023-05-20T04:39:40.826Z,13.26
2023-05-20T04:40:40.823Z,13.27
2023-05-20T04:41:40.779Z,13.27
2023-05-20T04:42:40.803Z,13.26
2023-05-20T04:43:40.767Z,13.26
2023-05-20T04:44:42.279Z,13.26
2023-05-20T04:45:40.744Z,13.26
2023-05-20T04:46:40.752Z,13.26
2023-05-20T04:47:40.761Z,13.27
2023-05-20T04:48:40.729Z,13.29
2023-05-20T04:49:40.703Z,13.30
2023-05-20T04:50:40.698Z,13.32
2023-05-20T04:51:40.705Z,13.32
2023-05-20T04:52:40.666Z,13.30
2023-05-20T04:53:40.665Z,13.28
2023-05-20T04:54:40.648Z,13.26
2023-05-20T04:55:40.632Z,13.24
2023-05-20T04:56:40.638Z,13.23
2023-05-20T04:57:40.615Z,13.22
2023-05-20T04:58:40.608Z,13.22
2023-05-20T04:59:40.598Z,13.23
2023-05-20T05:00:40.581Z,13.23
2023-05-20T05:01:40.650Z,13.22
2023-05-20T05:02:40.685Z,13.21
2023-05-20T05:03:40.555Z,13.21
2023-05-20T05:04:40.558Z,13.21
2023-05-20T05:05:40.546Z,13.22
2023-05-20T05:06:40.524Z,13.22
2023-05-20T05:07:40.533Z,13.22
2023-05-20T05:08:40.501Z,13.22
2023-05-20T05:09:40.489Z,13.22
2023-05-20T05:10:40.473Z,13.21
2023-05-20T05:11:40.466Z,13.19
2023-05-20T05:12:40.505Z,13.16
2023-05-20T05:13:40.452Z,13.15
2023-05-20T05:14:40.423Z,13.14
2023-05-20T05:15:40.437Z,13.14
2023-05-20T05:16:40.417Z,13.14
2023-05-20T05:17:40.468Z,13.15
2023-05-20T05:18:40.459Z,13.17
2023-05-20T05:19:40.376Z,13.18
2023-05-20T05:20:40.370Z,13.19
2023-05-20T05:21:40.354Z,13.20
2023-05-20T05:22:40.356Z,13.21
2023-05-20T05:23:40.337Z,13.22
2023-05-20T05:24:40.328Z,13.23
2023-05-20T05:25:40.307Z,13.24
2023-05-20T05:26:40.298Z,13.25
2023-05-20T05:27:40.332Z,13.27
2023-05-20T05:28:40.288Z,13.28
2023-05-20T05:29:40.270Z,13.30
2023-05-20T05:30:40.260Z,13.31
2023-05-20T05:31:40.251Z,13.31
2023-05-20T05:32:40.319Z,13.32
2023-05-20T05:33:40.243Z,13.31
2023-05-20T05:34:40.259Z,13.31
2023-05-20T05:35:40.195Z,13.30
2023-05-20T05:36:40.189Z,13.30
2023-05-20T05:37:40.175Z,13.28
2023-05-20T05:38:40.186Z,13.26
2023-05-20T05:39:40.162Z,13.24
2023-05-20T05:40:40.149Z,13.23
2023-05-20T05:41:40.139Z,13.21
2023-05-20T05:42:40.166Z,13.20
2023-05-20T05:43:40.175Z,13.20
2023-05-20T05:44:40.105Z,13.19
2023-05-20T05:45:40.095Z,13.19
2023-05-20T05:46:40.097Z,13.20
2023-05-20T05:47:40.127Z,13.20
2023-05-20T05:48:40.084Z,13.21
2023-05-20T05:49:40.052Z,13.22
2023-05-20T05:50:40.068Z,13.22
2023-05-20T05:51:40.037Z,13.23
2023-05-20T05:52:40.030Z,13.22
2023-05-20T05:53:40.006Z,13.22
2023-05-20T05:54:39.996Z,13.21
2023-05-20T05:55:39.987Z,13.21
2023-05-20T05:56:39.968Z,13.21
2023-05-20T05:57:39.985Z,13.22
2023-05-20T05:58:39.972Z,13.23
2023-05-20T05:59:39.934Z,13.24
2023-05-20T06:00:39.978Z,13.26
2023-05-20T06:01:39.926Z,13.27
2023-05-20T06:02:40.106Z,13.28
2023-05-20T06:03:40.011Z,13.29
2023-05-20T06:04:40.135Z,13.30
2023-05-20T06:05:39.881Z,13.30
2023-05-20T06:06:39.895Z,13.31
2023-05-20T06:07:39.868Z,13.33
2023-05-20T06:08:39.855Z,13.33
2023-05-20T06:09:39.829Z,13.34
2023-05-20T06:10:39.822Z,13.34
2023-05-20T06:11:39.803Z,13.33
2023-05-20T06:12:39.813Z,13.31
2023-05-20T06:13:39.785Z,13.30
2023-05-20T06:14:39.773Z,13.30
2023-05-20T06:15:39.768Z,13.30
2023-05-20T06:16:39.788Z,13.30
2023-05-20T06:17:39.778Z,13.30
2023-05-20T06:18:39.777Z,13.30
2023-05-20T06:19:39.809Z,13.31
2023-05-20T06:20:39.711Z,13.31
2023-05-20T06:21:39.701Z,13.33
2023-05-20T06:22:39.698Z,13.34
2023-05-20T06:23:39.677Z,13.35
2023-05-20T06:24:39.665Z,13.36
2023-05-20T06:25:39.661Z,13.37
2023-05-20T06:26:39.644Z,13.38
2023-05-20T06:27:39.649Z,13.38
2023-05-20T06:28:39.626Z,13.36
2023-05-20T06:29:40.969Z,13.34
2023-05-20T06:30:39.642Z,13.31
2023-05-20T06:31:39.584Z,13.28
2023-05-20T06:32:39.649Z,13.25
2023-05-20T06:33:39.572Z,13.24
2023-05-20T06:34:39.552Z,13.24
2023-05-20T06:35:39.543Z,13.24
2023-05-20T06:36:39.535Z,13.25
2023-05-20T06:37:39.585Z,13.26
2023-05-20T06:38:39.517Z,13.28
2023-05-20T06:39:39.504Z,13.30
2023-05-20T06:40:39.497Z,13.32
2023-05-20T06:41:39.474Z,13.35
2023-05-20T06:42:39.496Z,13.37
2023-05-20T06:43:39.456Z,13.40
2023-05-20T06:44:39.450Z,13.42
2023-05-20T06:45:39.455Z,13.44
2023-05-20T06:46:39.461Z,13.46
2023-05-20T06:47:39.466Z,13.48
2023-05-20T06:48:39.454Z,13.50
2023-05-20T06:49:39.411Z,13.52
2023-05-20T06:50:39.396Z,13.53
2023-05-20T06:51:39.359Z,13.54
2023-05-20T06:52:39.371Z,13.55
2023-05-20T06:53:39.383Z,13.55
2023-05-20T06:54:39.337Z,13.55
2023-05-20T06:55:39.332Z,13.57
2023-05-20T06:56:39.320Z,13.58
2023-05-20T06:57:39.302Z,13.59
2023-05-20T06:58:39.309Z,13.60
2023-05-20T06:59:39.293Z,13.60
2023-05-20T07:00:39.267Z,13.59
2023-05-20T07:01:39.321Z,13.57
2023-05-20T07:02:39.356Z,13.56
2023-05-20T07:03:39.278Z,13.56
2023-05-20T07:04:39.234Z,13.56
2023-05-20T07:05:39.213Z,13.57
2023-05-20T07:06:39.212Z,13.58
2023-05-20T07:07:39.234Z,13.60
2023-05-20T07:08:39.268Z,13.61
2023-05-20T07:09:39.182Z,13.62
2023-05-20T07:10:39.190Z,13.63
2023-05-20T07:11:39.161Z,13.64
2023-05-20T07:12:39.164Z,13.64
2023-05-20T07:13:39.147Z,13.63
2023-05-20T07:14:39.131Z,13.63
2023-05-20T07:15:39.115Z,13.63
2023-05-20T07:16:39.274Z,13.62
2023-05-20T07:17:39.113Z,13.61
2023-05-20T07:18:39.127Z,13.60
2023-05-20T07:19:39.071Z,13.58
2023-05-20T07:20:39.053Z,13.57
2023-05-20T07:21:39.048Z,13.57
2023-05-20T07:22:39.048Z,13.57
2023-05-20T07:23:39.083Z,13.58
2023-05-20T07:24:39.038Z,13.60
2023-05-20T07:25:38.999Z,13.61
2023-05-20T07:26:38.995Z,13.62
2023-05-20T07:27:38.974Z,13.63
2023-05-20T07:28:38.994Z,13.64
2023-05-20T07:29:38.944Z,13.65
2023-05-20T07:30:38.943Z,13.66
2023-05-20T07:31:38.975Z,13.66
2023-05-20T07:32:38.954Z,13.66
2023-05-20T07:33:38.910Z,13.66
2023-05-20T07:34:38.935Z,13.67
2023-05-20T07:35:38.884Z,13.68
2023-05-20T07:36:38.869Z,13.68
2023-05-20T07:37:38.866Z,13.69
2023-05-20T07:38:40.986Z,13.70
2023-05-20T07:39:38.847Z,13.70
2023-05-20T07:40:38.837Z,13.70
2023-05-20T07:41:45.855Z,13.71
2023-05-20T07:42:38.814Z,13.71
2023-05-20T07:43:38.820Z,13.72
2023-05-20T07:44:38.815Z,13.73
2023-05-20T07:45:38.835Z,13.74
2023-05-20T07:46:38.822Z,13.75
2023-05-20T07:47:38.827Z,13.76
2023-05-20T07:48:38.746Z,13.77
2023-05-20T07:49:38.750Z,13.78
2023-05-20T07:50:38.728Z,13.78
2023-05-20T07:51:38.716Z,13.79
2023-05-20T07:52:51.822Z,13.79
2023-05-20T07:53:39.697Z,13.80
2023-05-20T07:54:38.705Z,13.81
2023-05-20T07:55:38.681Z,13.82
2023-05-20T07:56:38.664Z,13.82
2023-05-20T07:57:38.648Z,13.82
2023-05-20T07:58:38.632Z,13.81
2023-05-20T07:59:38.651Z,13.80
2023-05-20T08:00:38.617Z,13.79
2023-05-20T08:01:38.616Z,13.78
2023-05-20T08:02:38.721Z,13.78
2023-05-20T08:03:38.613Z,13.78
2023-05-20T08:04:38.829Z,13.79
2023-05-20T08:05:38.578Z,13.80
2023-05-20T08:06:38.549Z,13.81
2023-05-20T08:07:38.554Z,13.83
2023-05-20T08:08:38.520Z,13.86
2023-05-20T08:09:38.529Z,13.88
2023-05-20T08:10:38.509Z,13.90
2023-05-20T08:11:38.496Z,13.91
2023-05-20T08:12:38.478Z,13.93
2023-05-20T08:13:38.476Z,13.96
2023-05-20T08:14:38.473Z,13.98
2023-05-20T08:15:38.470Z,14.00
2023-05-20T08:16:38.526Z,14.01
2023-05-20T08:17:38.467Z,14.02
2023-05-20T08:18:38.444Z,14.02
2023-05-20T08:19:38.396Z,14.02
2023-05-20T08:20:38.436Z,14.02
2023-05-20T08:21:38.389Z,14.03
2023-05-20T08:22:38.380Z,14.04
2023-05-20T08:23:40.527Z,14.05
2023-05-20T08:24:38.350Z,14.05
2023-05-20T08:25:38.363Z,14.06
2023-05-20T08:26:38.334Z,14.06
2023-05-20T08:27:38.324Z,14.07
2023-05-20T08:28:38.363Z,14.08
2023-05-20T08:29:38.304Z,14.09
2023-05-20T08:30:38.315Z,14.10
2023-05-20T08:31:38.446Z,14.11
2023-05-20T08:32:38.305Z,14.12
2023-05-20T08:33:38.261Z,14.13
2023-05-20T08:34:38.252Z,14.14
2023-05-20T08:35:38.251Z,14.14
2023-05-20T08:36:38.244Z,14.15
2023-05-20T08:37:38.239Z,14.16
2023-05-20T08:38:38.206Z,14.17
2023-05-20T08:39:38.187Z,14.18
2023-05-20T08:40:38.214Z,14.19
2023-05-20T08:41:38.158Z,14.20
2023-05-20T08:42:38.189Z,14.21
2023-05-20T08:43:38.157Z,14.22
2023-05-20T08:44:38.135Z,14.22
2023-05-20T08:45:38.164Z,14.23
2023-05-20T08:46:38.186Z,14.23
2023-05-20T08:47:38.113Z,14.24
2023-05-20T08:48:38.086Z,14.25
2023-05-20T08:49:38.092Z,14.26
2023-05-20T08:50:38.091Z,14.26
2023-05-20T08:51:38.056Z,14.25
2023-05-20T08:52:38.042Z,14.23
2023-05-20T08:53:38.035Z,14.22
2023-05-20T08:54:38.029Z,14.20
2023-05-20T08:55:38.031Z,14.18
2023-05-20T08:56:38.008Z,14.16
2023-05-20T08:57:37.993Z,14.14
2023-05-20T08:58:37.982Z,14.12
2023-05-20T08:59:37.968Z,14.10
2023-05-20T09:00:37.979Z,14.08
2023-05-20T09:01:37.976Z,14.07
2023-05-20T09:02:37.938Z,14.05
2023-05-20T09:03:37.930Z,14.04
2023-05-20T09:04:37.935Z,14.03
2023-05-20T09:05:37.927Z,14.03
2023-05-20T09:06:37.902Z,14.03
2023-05-20T09:07:37.882Z,14.04
2023-05-20T09:08:37.893Z,14.05
2023-05-20T09:09:37.876Z,14.07
2023-05-20T09:10:37.890Z,14.08
2023-05-20T09:11:37.846Z,14.10
2023-05-20T09:12:37.826Z,14.12
2023-05-20T09:13:37.822Z,14.14
2023-05-20T09:14:37.810Z,14.15
2023-05-20T09:15:37.840Z,14.17
2023-05-20T09:16:37.891Z,14.19
2023-05-20T09:17:37.815Z,14.21
2023-05-20T09:18:37.768Z,14.23
2023-05-20T09:19:37.855Z,14.25
2023-05-20T09:20:37.814Z,14.27
2023-05-20T09:21:37.752Z,14.28
2023-05-20T09:22:37.733Z,14.30
2023-05-20T09:23:37.733Z,14.32
2023-05-20T09:24:37.701Z,14.34
2023-05-20T09:25:37.726Z,14.37
2023-05-20T09:26:37.688Z,14.40
2023-05-20T09:27:37.720Z,14.44
2023-05-20T09:28:37.643Z,14.47
2023-05-20T09:29:37.650Z,14.51
2023-05-20T09:30:37.641Z,14.54
2023-05-20T09:31:37.710Z,14.56
2023-05-20T09:32:37.683Z,14.58
2023-05-20T09:33:37.608Z,14.59
2023-05-20T09:34:37.589Z,14.61
2023-05-20T09:35:37.688Z,14.62
2023-05-20T09:36:37.566Z,14.63
2023-05-20T09:37:37.558Z,14.65
2023-05-20T09:38:37.555Z,14.67
2023-05-20T09:39:37.524Z,14.68
2023-05-20T09:40:37.527Z,14.70
2023-05-20T09:41:37.527Z,14.72
2023-05-20T09:42:37.513Z,14.75
2023-05-20T09:43:37.508Z,14.77
2023-05-20T09:44:37.477Z,14.79
2023-05-20T09:45:37.754Z,14.81
2023-05-20T09:46:37.596Z,14.83
2023-05-20T09:47:37.470Z,14.84
2023-05-20T09:48:37.437Z,14.85
2023-05-20T09:49:37.465Z,14.85
2023-05-20T09:50:37.409Z,14.86
2023-05-20T09:51:37.467Z,14.87
2023-05-20T09:52:37.416Z,14.88
2023-05-20T09:53:37.376Z,14.89
2023-05-20T09:54:37.377Z,14.91
2023-05-20T09:55:37.587Z,14.92
2023-05-20T09:56:37.348Z,14.94
2023-05-20T09:57:37.373Z,14.96
2023-05-20T09:58:37.334Z,14.99
2023-05-20T09:59:37.308Z,15.02
2023-05-20T10:00:37.306Z,15.06
2023-05-20T10:01:37.320Z,15.11
2023-05-20T10:02:37.344Z,15.15
2023-05-20T10:03:37.505Z,15.19
2023-05-20T10:04:37.253Z,15.23
2023-05-20T10:05:37.342Z,15.27
2023-05-20T10:06:37.234Z,15.31
2023-05-20T10:07:42.325Z,15.34
2023-05-20T10:08:38.212Z,15.37
2023-05-20T10:09:37.234Z,15.39
2023-05-20T10:10:37.196Z,15.42
2023-05-20T10:11:37.179Z,15.46
2023-05-20T10:12:37.189Z,15.51
2023-05-20T10:13:37.159Z,15.58
2023-05-20T10:14:37.169Z,15.66
2023-05-20T10:15:37.322Z,15.72
2023-05-20T10:16:37.147Z,15.78
2023-05-20T10:17:37.165Z,15.84
2023-05-20T10:18:40.941Z,15.88
2023-05-20T10:19:37.091Z,15.90
2023-05-20T10:20:37.085Z,15.91
2023-05-20T10:21:37.072Z,15.91
2023-05-20T10:22:37.080Z,15.90
2023-05-20T10:23:37.060Z,15.89
2023-05-20T10:24:37.040Z,15.89
2023-05-20T10:25:37.280Z,15.88
2023-05-20T10:26:37.032Z,15.89
2023-05-20T10:27:37.035Z,15.89
2023-05-20T10:28:37.005Z,15.90
2023-05-20T10:29:36.995Z,15.91
2023-05-20T10:30:37.105Z,15.92
2023-05-20T10:31:36.987Z,15.92
2023-05-20T10:32:37.016Z,15.92
2023-05-20T10:33:37.004Z,15.93
2023-05-20T10:34:36.930Z,15.94
2023-05-20T10:35:36.919Z,15.94
2023-05-20T10:36:36.906Z,15.94
2023-05-20T10:37:36.897Z,15.95
2023-05-20T10:38:36.896Z,15.96
2023-05-20T10:39:36.874Z,15.97
2023-05-20T10:40:37.062Z,15.98
2023-05-20T10:41:36.865Z,15.99
2023-05-20T10:42:36.834Z,16.00
2023-05-20T10:43:36.851Z,16.02
2023-05-20T10:44:36.817Z,16.04
2023-05-20T10:45:36.829Z,16.07
2023-05-20T10:46:53.825Z,16.09
2023-05-20T10:47:37.947Z,16.12
2023-05-20T10:48:36.850Z,16.16
2023-05-20T10:49:36.787Z,16.18
2023-05-20T10:50:36.853Z,16.20
2023-05-20T10:51:36.738Z,16.23
2023-05-20T10:52:36.748Z,16.28
2023-05-20T10:53:36.744Z,16.33
2023-05-20T10:54:36.706Z,16.38
2023-05-20T10:55:36.695Z,16.41
2023-05-20T10:56:36.685Z,16.44
2023-05-20T10:57:36.677Z,16.46
2023-05-20T10:58:36.653Z,16.48
2023-05-20T10:59:36.665Z,16.50
2023-05-20T11:00:37.060Z,16.52
2023-05-20T11:01:36.665Z,16.54
2023-05-20T11:02:36.762Z,16.55
2023-05-20T11:03:36.757Z,16.55
2023-05-20T11:04:36.622Z,16.56
2023-05-20T11:05:36.592Z,16.56
2023-05-20T11:06:36.570Z,16.55
2023-05-20T11:07:36.578Z,16.55
2023-05-20T11:08:36.603Z,16.55
2023-05-20T11:09:36.578Z,16.55
2023-05-20T11:10:37.083Z,16.55
2023-05-20T11:11:36.538Z,16.56
2023-05-20T11:12:36.535Z,16.57
2023-05-20T11:13:36.503Z,16.60
2023-05-20T11:14:36.516Z,16.62
2023-05-20T11:15:36.485Z,16.65
2023-05-20T11:16:36.514Z,16.68
2023-05-20T11:17:36.507Z,16.71
2023-05-20T11:18:36.520Z,16.73
2023-05-20T11:19:36.465Z,16.75
2023-05-20T11:20:36.655Z,16.77
2023-05-20T11:21:36.425Z,16.80
2023-05-20T11:22:36.417Z,16.82
2023-05-20T11:23:37.221Z,16.84
2023-05-20T11:24:36.404Z,16.87
2023-05-20T11:25:36.391Z,16.91
2023-05-20T11:26:36.371Z,16.96
2023-05-20T11:27:36.347Z,17.00
2023-05-20T11:28:36.339Z,17.05
2023-05-20T11:29:36.343Z,17.12
2023-05-20T11:30:36.474Z,17.17
2023-05-20T11:31:36.373Z,17.21
2023-05-20T11:32:36.359Z,17.24
2023-05-20T11:33:36.304Z,17.26
2023-05-20T11:34:36.312Z,17.28
2023-05-20T11:35:36.257Z,17.30
2023-05-20T11:36:36.277Z,17.31
2023-05-20T11:37:36.530Z,17.31
2023-05-20T11:38:36.229Z,17.32
2023-05-20T11:39:36.222Z,17.35
2023-05-20T11:40:49.888Z,17.38
2023-05-20T11:41:37.215Z,17.42
2023-05-20T11:42:36.179Z,17.45
2023-05-20T11:43:36.182Z,17.47
2023-05-20T11:44:36.164Z,17.50
2023-05-20T11:45:36.145Z,17.52
2023-05-20T11:46:36.232Z,17.53
2023-05-20T11:47:36.151Z,17.54
2023-05-20T11:48:36.123Z,17.55
2023-05-20T11:49:36.103Z,17.58
2023-05-20T11:50:36.214Z,17.62
2023-05-20T11:51:36.112Z,17.66
2023-05-20T11:52:36.081Z,17.71
2023-05-20T11:53:36.064Z,17.76
2023-05-20T11:54:36.073Z,17.80
2023-05-20T11:55:36.056Z,17.82
2023-05-20T11:56:36.019Z,17.85
2023-05-20T11:57:36.039Z,17.88
2023-05-20T11:58:36.007Z,17.91
2023-05-20T11:59:36.012Z,17.94
2023-05-20T12:00:46.766Z,17.96
2023-05-20T12:01:37.001Z,17.98
2023-05-20T12:02:36.042Z,18.00
2023-05-20T12:03:36.059Z,18.04
2023-05-20T12:04:35.985Z,18.10
2023-05-20T12:05:35.948Z,18.16
2023-05-20T12:06:35.921Z,18.21
2023-05-20T12:07:35.929Z,18.23
2023-05-20T12:08:35.906Z,18.24
2023-05-20T12:09:35.929Z,18.25
2023-05-20T12:10:36.098Z,18.24
2023-05-20T12:11:35.871Z,18.22
2023-05-20T12:12:35.887Z,18.19
2023-05-20T12:13:35.956Z,18.17
2023-05-20T12:14:35.842Z,18.16
2023-05-20T12:15:35.826Z,18.16
2023-05-20T12:16:35.910Z,18.16
2023-05-20T12:17:35.832Z,18.16
2023-05-20T12:18:35.794Z,18.16
2023-05-20T12:19:37.049Z,18.15
2023-05-20T12:20:36.072Z,18.15
2023-05-20T12:21:35.755Z,18.16
2023-05-20T12:22:35.747Z,18.17
2023-05-20T12:23:35.789Z,18.18
2023-05-20T12:24:35.743Z,18.19
2023-05-20T12:25:35.718Z,18.20
2023-05-20T12:26:35.805Z,18.21
2023-05-20T12:27:35.713Z,18.22
2023-05-20T12:28:35.711Z,18.26
2023-05-20T12:29:35.669Z,18.31
2023-05-20T12:30:35.852Z,18.36
2023-05-20T12:31:35.672Z,18.41
2023-05-20T12:32:35.733Z,18.45
2023-05-20T12:33:35.645Z,18.48
2023-05-20T12:34:35.612Z,18.50
2023-05-20T12:35:35.599Z,18.50
2023-05-20T12:36:35.625Z,18.51
2023-05-20T12:37:36.721Z,18.51
2023-05-20T12:38:35.570Z,18.50
2023-05-20T12:39:35.581Z,18.49
2023-05-20T12:40:35.831Z,18.48
2023-05-20T12:41:35.537Z,18.48
2023-05-20T12:42:35.537Z,18.46
2023-05-20T12:43:36.843Z,18.45
2023-05-20T12:44:35.499Z,18.45
2023-05-20T12:45:35.504Z,18.45
2023-05-20T12:46:35.601Z,18.48
2023-05-20T12:47:35.535Z,18.49
2023-05-20T12:48:35.463Z,18.51
2023-05-20T12:49:35.474Z,18.53
2023-05-20T12:50:35.840Z,18.53
2023-05-20T12:51:35.431Z,18.52
2023-05-20T12:52:35.415Z,18.51